createdAt,value
2022-10-20T00:00:43.889Z,99804.66
2022-10-20T00:03:47.981Z,99802.94
2022-10-20T00:06:51.048Z,99790.47
2022-10-20T00:09:54.104Z,99789.63
2022-10-20T00:12:57.213Z,99786.50
2022-10-20T00:16:01.987Z,99784.41
2022-10-20T00:19:05.527Z,99777.91
2022-10-20T00:22:08.763Z,99782.97
2022-10-20T00:25:11.777Z,99787.97
2022-10-20T00:28:14.981Z,99782.09
2022-10-20T00:31:21.043Z,99784.88
2022-10-20T00:34:24.137Z,99777.44
2022-10-20T00:37:27.205Z,99782.19
2022-10-20T00:40:30.306Z,99782.66
2022-10-20T00:43:48.609Z,99766.94
2022-10-20T00:46:53.558Z,99776.41
2022-10-20T00:50:08.402Z,99765.44
2022-10-20T00:53:12.449Z,99767.81
2022-10-20T00:56:15.772Z,99770.75
2022-10-20T00:59:23.009Z,99771.69
2022-10-20T01:02:27.893Z,99767.91
2022-10-20T01:05:31.101Z,99776.59
2022-10-20T01:08:34.300Z,99775.53
2022-10-20T01:11:44.083Z,99765.06
2022-10-20T01:14:56.440Z,99768.78
2022-10-20T01:18:09.919Z,99774.41
2022-10-20T01:21:48.953Z,99759.72
2022-10-20T01:25:07.632Z,99766.72
2022-10-20T01:28:18.242Z,99773.44
2022-10-20T01:31:30.818Z,99771.34
2022-10-20T01:34:40.169Z,99781.16
2022-10-20T01:37:49.560Z,99792.06
2022-10-20T01:40:59.634Z,99791.72
2022-10-20T01:44:07.102Z,99791.81
2022-10-20T01:47:11.738Z,99781.59
2022-10-20T01:50:16.948Z,99786.19
2022-10-20T01:53:21.295Z,99786.09
2022-10-20T01:56:31.215Z,99791.72
2022-10-20T01:59:46.988Z,99796.97
2022-10-20T02:03:13.434Z,99794.81
2022-10-20T02:06:26.209Z,99792.44
2022-10-20T02:09:37.760Z,99796.16
2022-10-20T02:12:44.226Z,99799.06
2022-10-20T02:15:52.628Z,99799.63
2022-10-20T02:18:56.635Z,99801.81
2022-10-20T02:21:59.845Z,99802.97
2022-10-20T02:25:03.153Z,99806.38
2022-10-20T02:28:10.160Z,99805.81
2022-10-20T02:31:14.931Z,99810.56
2022-10-20T02:34:18.034Z,99811.84
2022-10-20T02:37:21.182Z,99812.28
2022-10-20T02:40:24.822Z,99809.91
2022-10-20T02:43:27.909Z,99817.28
2022-10-20T02:46:32.502Z,99819.63
2022-10-20T02:49:35.582Z,99834.19
2022-10-20T02:52:38.681Z,99829.63
2022-10-20T02:55:43.713Z,99827.47
2022-10-20T02:58:46.790Z,99836.28
2022-10-20T03:01:52.750Z,99840.03
2022-10-20T03:04:55.868Z,99845.72
2022-10-20T03:07:59.017Z,99852.91
2022-10-20T03:11:02.109Z,99864.31
2022-10-20T03:14:05.218Z,99853.06
2022-10-20T03:17:09.886Z,99863.25
2022-10-20T03:20:13.203Z,99858.44
2022-10-20T03:23:17.840Z,99854.47
2022-10-20T03:26:23.184Z,99864.53
2022-10-20T03:29:26.259Z,99866.34
2022-10-20T03:32:30.763Z,99876.91
2022-10-20T03:35:34.165Z,99871.25
2022-10-20T03:38:37.317Z,99882.84
2022-10-20T03:41:40.443Z,99887.22
2022-10-20T03:44:45.059Z,99894.88
2022-10-20T03:47:49.961Z,99891.78
2022-10-20T03:50:53.010Z,99888.34
2022-10-20T03:53:56.080Z,99899.44
2022-10-20T03:56:59.187Z,99893.44
2022-10-20T04:00:02.242Z,99895.16
2022-10-20T04:03:16.171Z,99907.56
2022-10-20T04:06:19.407Z,99907.31
2022-10-20T04:09:22.479Z,99905.44
2022-10-20T04:12:26.498Z,99900.56
2022-10-20T04:15:29.771Z,99896.63
2022-10-20T04:18:34.253Z,99900.34
2022-10-20T04:21:37.331Z,99908.91
2022-10-20T04:24:40.573Z,99910.75
2022-10-20T04:27:43.701Z,99917.66
2022-10-20T04:30:47.811Z,99910.75
2022-10-20T04:33:52.247Z,99912.69
2022-10-20T04:36:55.308Z,99918.44
2022-10-20T04:39:58.761Z,99921.00
2022-10-20T04:43:01.892Z,99931.16
2022-10-20T04:46:08.477Z,99928.41
2022-10-20T04:49:13.612Z,99939.59
2022-10-20T04:52:17.333Z,99929.25
2022-10-20T04:55:20.494Z,99936.44
2022-10-20T04:58:23.918Z,99945.09
2022-10-20T05:01:29.685Z,99951.28
2022-10-20T05:04:34.182Z,99955.28
2022-10-20T05:07:37.553Z,99963.69
2022-10-20T05:10:40.940Z,99955.84
2022-10-20T05:13:44.472Z,99966.38
2022-10-20T05:16:47.498Z,99965.81
2022-10-20T05:19:51.998Z,99979.13
2022-10-20T05:22:55.030Z,99979.38
2022-10-20T05:25:58.118Z,99990.53
2022-10-20T05:29:02.305Z,99993.69
2022-10-20T05:32:05.907Z,100008.50
2022-10-20T05:35:10.803Z,100007.97
2022-10-20T05:38:13.881Z,100014.81
2022-10-20T05:41:18.807Z,100014.69
2022-10-20T05:44:22.079Z,100018.50
2022-10-20T05:47:25.324Z,100017.81
2022-10-20T05:50:30.821Z,100025.44
2022-10-20T05:53:33.940Z,100029.13
2022-10-20T05:56:37.093Z,100029.63
2022-10-20T05:59:40.238Z,100049.63
2022-10-20T06:02:43.375Z,100046.97
2022-10-20T06:05:48.061Z,100053.59
2022-10-20T06:08:54.239Z,100066.19
2022-10-20T06:11:57.380Z,100074.03
2022-10-20T06:15:00.574Z,100078.72
2022-10-20T06:18:03.667Z,100072.91
2022-10-20T06:21:12.332Z,100083.41
2022-10-20T06:24:16.642Z,100086.03
2022-10-20T06:27:19.787Z,100087.69
2022-10-20T06:30:25.194Z,100090.06
2022-10-20T06:33:31.322Z,100092.94
2022-10-20T06:36:38.069Z,100103.81
2022-10-20T06:39:41.230Z,100104.53
2022-10-20T06:42:44.332Z,100108.06
2022-10-20T06:45:55.393Z,100116.53
2022-10-20T06:49:01.296Z,100121.41
2022-10-20T06:52:06.143Z,100121.47
2022-10-20T06:55:10.311Z,100112.38
2022-10-20T06:58:13.510Z,100121.69
2022-10-20T07:01:18.039Z,100115.22
2022-10-20T07:04:21.152Z,100124.53
2022-10-20T07:07:25.682Z,100125.56
2022-10-20T07:10:28.803Z,100119.19
2022-10-20T07:13:33.240Z,100125.38
2022-10-20T07:16:38.543Z,100118.22
2022-10-20T07:19:41.753Z,100117.28
2022-10-20T07:22:46.366Z,100128.22
2022-10-20T07:25:51.359Z,100126.75
2022-10-20T07:28:57.585Z,100126.03
2022-10-20T07:32:02.071Z,100118.47
2022-10-20T07:35:06.021Z,100114.00
2022-10-20T07:38:10.571Z,100128.34
2022-10-20T07:41:14.163Z,100130.84
2022-10-20T07:44:17.490Z,100128.63
2022-10-20T07:47:21.149Z,100124.25
2022-10-20T07:50:28.018Z,100117.31
2022-10-20T07:53:32.656Z,100122.91
2022-10-20T07:56:37.852Z,100124.25
2022-10-20T07:59:41.140Z,100123.03
2022-10-20T08:02:45.625Z,100120.16
2022-10-20T08:05:48.856Z,100136.72
2022-10-20T08:08:53.748Z,100131.66
2022-10-20T08:11:56.934Z,100133.44
2022-10-20T08:15:12.503Z,100133.28
2022-10-20T08:18:23.172Z,100126.63
2022-10-20T08:21:26.469Z,100125.50
2022-10-20T08:24:31.744Z,100125.44
2022-10-20T08:27:34.906Z,100125.63
2022-10-20T08:30:38.524Z,100114.38
2022-10-20T08:33:41.998Z,100110.41
2022-10-20T08:36:45.248Z,100114.25
2022-10-20T08:39:49.797Z,100123.88
2022-10-20T08:42:53.689Z,100121.25
2022-10-20T08:45:57.069Z,100116.94
2022-10-20T08:49:00.932Z,100117.69
2022-10-20T08:52:04.408Z,100111.84
2022-10-20T08:58:28.377Z,100118.19
2022-10-20T09:01:35.835Z,100114.06
2022-10-20T09:04:45.914Z,100121.50
2022-10-20T09:07:50.226Z,100111.22
2022-10-20T09:10:56.465Z,100118.31
2022-10-20T09:13:59.739Z,100109.25
2022-10-20T09:17:03.342Z,100119.38
2022-10-20T09:20:13.339Z,100120.22
2022-10-20T09:23:39.419Z,100112.94
2022-10-20T09:26:58.046Z,100118.25
2022-10-20T09:30:15.796Z,100113.41
2022-10-20T09:33:26.256Z,100109.81
2022-10-20T09:36:32.691Z,100106.53
2022-10-20T09:39:43.482Z,100103.09
2022-10-20T09:42:52.010Z,100117.81
2022-10-20T09:45:57.683Z,100104.66
2022-10-20T09:49:00.963Z,100107.97
2022-10-20T09:52:17.219Z,100100.59
2022-10-20T09:55:27.668Z,100099.88
2022-10-20T09:58:34.882Z,100104.53
2022-10-20T10:01:54.585Z,100104.66
2022-10-20T10:05:15.939Z,100101.56
2022-10-20T10:08:20.082Z,100099.53
2022-10-20T10:11:34.201Z,100101.06
2022-10-20T10:14:40.267Z,100104.09
2022-10-20T10:17:44.695Z,100095.47
2022-10-20T10:20:48.001Z,100094.44
2022-10-20T10:23:53.344Z,100089.75
2022-10-20T10:26:57.788Z,100085.50
2022-10-20T10:30:27.779Z,100079.09
2022-10-20T10:33:33.157Z,100075.16
2022-10-20T10:36:37.914Z,100076.97
2022-10-20T10:39:42.793Z,100070.81
2022-10-20T10:43:12.994Z,100071.41
2022-10-20T10:46:21.129Z,100068.63
2022-10-20T10:49:42.373Z,100065.47
2022-10-20T10:52:56.897Z,100057.66
2022-10-20T10:56:10.155Z,100052.47
2022-10-20T10:59:19.194Z,100051.69
2022-10-20T11:03:10.030Z,100046.81
2022-10-20T11:06:20.531Z,100048.63
2022-10-20T11:09:34.216Z,100046.66
2022-10-20T11:12:50.912Z,100036.50
2022-10-20T11:16:03.081Z,100039.94
2022-10-20T11:19:35.546Z,100038.13
2022-10-20T11:22:47.805Z,100033.38
2022-10-20T11:25:55.967Z,100021.50
2022-10-20T11:28:59.883Z,100027.31
2022-10-20T11:32:13.165Z,100028.00
2022-10-20T11:35:29.181Z,100033.13
2022-10-20T11:38:40.498Z,100030.91
2022-10-20T11:41:49.385Z,100032.31
2022-10-20T11:44:53.706Z,100029.81
2022-10-20T11:48:02.971Z,100029.03
2022-10-20T11:51:30.497Z,100025.00
2022-10-20T11:54:48.222Z,100013.28
2022-10-20T11:58:04.409Z,100018.63
2022-10-20T12:01:45.266Z,100017.03
2022-10-20T12:05:16.495Z,100012.22
2022-10-20T12:08:37.395Z,100008.63
2022-10-20T12:11:50.498Z,100016.34
2022-10-20T12:14:59.452Z,100009.22
2022-10-20T12:18:06.628Z,100014.03
2022-10-20T12:21:11.801Z,99997.88
2022-10-20T12:24:37.980Z,99993.31
2022-10-20T12:27:41.196Z,99992.69
2022-10-20T12:30:46.462Z,99990.50
2022-10-20T12:34:03.873Z,99991.66
2022-10-20T12:37:18.066Z,99988.84
2022-10-20T12:40:27.698Z,99989.28
2022-10-20T12:43:38.676Z,99991.84
2022-10-20T12:46:44.858Z,99992.94
2022-10-20T12:49:57.943Z,99986.78
2022-10-20T12:53:15.155Z,99987.69
2022-10-20T12:56:22.304Z,99983.03
2022-10-20T12:59:40.837Z,100000.13
2022-10-20T13:02:51.732Z,99988.84
2022-10-20T13:05:54.891Z,99987.66
2022-10-20T13:09:22.602Z,99983.22
2022-10-20T13:12:30.643Z,99987.00
2022-10-20T13:15:37.982Z,99990.47
2022-10-20T13:18:47.304Z,99987.34
2022-10-20T13:21:51.668Z,99987.91
2022-10-20T13:24:56.758Z,99999.06
2022-10-20T13:28:07.859Z,99997.69
2022-10-20T13:31:22.091Z,99994.34
2022-10-20T13:34:31.926Z,99997.25
2022-10-20T13:37:51.813Z,99997.38
2022-10-20T13:41:03.179Z,99990.88
2022-10-20T13:44:16.597Z,99997.81
2022-10-20T13:47:36.897Z,99994.72
2022-10-20T13:50:43.738Z,100003.69
2022-10-20T13:53:50.176Z,100003.91
2022-10-20T13:56:53.951Z,100007.31
2022-10-20T14:00:00.575Z,100005.84
2022-10-20T14:03:07.346Z,100002.78
2022-10-20T14:06:35.641Z,99993.91
2022-10-20T14:09:40.685Z,100001.88
2022-10-20T14:12:47.218Z,100003.19
2022-10-20T14:15:55.212Z,100005.69
2022-10-20T14:19:02.945Z,99997.41
2022-10-20T14:22:14.197Z,100003.00
2022-10-20T14:25:18.138Z,100006.69
2022-10-20T14:28:23.366Z,100008.47
2022-10-20T14:31:28.369Z,100007.53
2022-10-20T14:34:36.037Z,100001.84
2022-10-20T14:37:41.721Z,100005.13
2022-10-20T14:40:51.828Z,100008.72
2022-10-20T14:44:03.380Z,100004.91
2022-10-20T14:47:15.158Z,99999.34
2022-10-20T14:50:24.402Z,100008.84
2022-10-20T14:53:32.420Z,100008.50
2022-10-20T14:56:43.951Z,100002.03
2022-10-20T14:59:53.837Z,100006.19
2022-10-20T15:03:01.672Z,99998.44
2022-10-20T15:06:05.733Z,100015.63
2022-10-20T15:09:19.527Z,100017.53
2022-10-20T15:12:34.655Z,100013.03
2022-10-20T15:15:39.563Z,100015.34
2022-10-20T15:18:44.216Z,100022.13
2022-10-20T15:21:48.181Z,100019.69
2022-10-20T15:24:51.463Z,100035.28
2022-10-20T15:27:56.451Z,100034.72
2022-10-20T15:31:01.313Z,100029.97
2022-10-20T15:34:05.933Z,100031.25
2022-10-20T15:37:09.978Z,100033.50
2022-10-20T15:40:13.706Z,100041.66
2022-10-20T15:43:19.408Z,100046.59
2022-10-20T15:46:23.066Z,100058.03
2022-10-20T15:49:27.654Z,100054.31
2022-10-20T15:52:30.834Z,100063.25
2022-10-20T15:55:35.815Z,100062.25
2022-10-20T15:58:39.943Z,100067.53
2022-10-20T16:01:43.644Z,100071.00
2022-10-20T16:04:48.229Z,100083.16
2022-10-20T16:07:53.142Z,100078.88
2022-10-20T16:10:56.873Z,100075.28
2022-10-20T16:14:00.127Z,100090.94
2022-10-20T16:17:03.589Z,100089.03
2022-10-20T16:20:09.639Z,100098.34
2022-10-20T16:23:12.848Z,100104.78
2022-10-20T16:26:16.252Z,100109.53
2022-10-20T16:29:19.493Z,100113.75
2022-10-20T16:32:22.686Z,100122.16
2022-10-20T16:35:27.319Z,100128.59
2022-10-20T16:38:30.596Z,100138.38
2022-10-20T16:41:33.828Z,100145.34
2022-10-20T16:44:37.026Z,100155.00
2022-10-20T16:47:40.402Z,100153.34
2022-10-20T16:50:45.127Z,100154.75
2022-10-20T16:53:48.460Z,100154.22
2022-10-20T16:56:51.739Z,100158.88
2022-10-20T16:59:54.853Z,100162.69
2022-10-20T17:02:58.134Z,100162.75
2022-10-20T17:06:04.774Z,100168.13
2022-10-20T17:09:08.196Z,100172.44
2022-10-20T17:12:11.517Z,100172.81
2022-10-20T17:15:14.711Z,100174.38
2022-10-20T17:18:18.005Z,100178.28
2022-10-20T17:21:22.708Z,100178.84
2022-10-20T17:24:25.893Z,100190.69
2022-10-20T17:27:29.043Z,100195.91
2022-10-20T17:30:32.307Z,100204.25
2022-10-20T17:33:35.474Z,100207.72
2022-10-20T17:36:40.114Z,100212.34
2022-10-20T17:39:43.282Z,100209.06
2022-10-20T17:42:46.483Z,100207.41
2022-10-20T17:45:57.876Z,100216.91
2022-10-20T17:49:02.173Z,100216.09
2022-10-20T17:52:06.899Z,100214.19
2022-10-20T17:55:10.439Z,100225.13
2022-10-20T17:58:13.639Z,100224.13
2022-10-20T18:01:19.172Z,100215.56
2022-10-20T18:04:22.443Z,100226.97
2022-10-20T18:07:27.624Z,100231.25
2022-10-20T18:10:30.858Z,100232.16
2022-10-20T18:13:34.090Z,100233.72
2022-10-20T18:16:39.635Z,100234.00
2022-10-20T18:19:43.837Z,100236.66
2022-10-20T18:22:48.402Z,100233.53
2022-10-20T18:25:51.567Z,100239.66
2022-10-20T18:28:54.909Z,100240.38
2022-10-20T18:31:58.098Z,100253.88
2022-10-20T18:35:02.356Z,100252.66
2022-10-20T18:38:07.004Z,100259.63
2022-10-20T18:41:12.499Z,100261.28
2022-10-20T18:44:17.338Z,100273.88
2022-10-20T18:47:20.612Z,100272.94
2022-10-20T18:50:23.835Z,100274.78
2022-10-20T18:53:29.767Z,100277.63
2022-10-20T18:56:33.163Z,100281.72
2022-10-20T18:59:36.358Z,100281.38
2022-10-20T19:02:39.623Z,100280.97
2022-10-20T19:05:42.932Z,100290.44
2022-10-20T19:08:52.694Z,100293.97
2022-10-20T19:11:56.021Z,100306.94
2022-10-20T19:14:59.224Z,100308.47
2022-10-20T19:18:02.437Z,100316.09
2022-10-20T19:21:07.241Z,100325.31
2022-10-20T19:24:15.358Z,100327.19
2022-10-20T19:27:26.691Z,100323.97
2022-10-20T19:30:35.431Z,100339.88
2022-10-20T19:33:38.642Z,100333.44
2022-10-20T19:36:42.797Z,100346.66
2022-10-20T19:39:47.435Z,100355.06
2022-10-20T19:42:50.665Z,100357.88
2022-10-20T19:45:53.896Z,100366.94
2022-10-20T19:48:57.497Z,100361.00
2022-10-20T19:52:01.032Z,100373.84
2022-10-20T19:55:06.191Z,100377.16
2022-10-20T20:01:18.834Z,100383.06
2022-10-20T20:04:22.604Z,100393.94
2022-10-20T20:07:25.837Z,100401.63
2022-10-20T20:10:30.544Z,100404.03
2022-10-20T20:13:33.785Z,100414.81
2022-10-20T20:16:37.309Z,100407.66
2022-10-20T20:19:40.859Z,100411.78
2022-10-20T20:22:44.082Z,100415.47
2022-10-20T20:25:48.751Z,100419.38
2022-10-20T20:28:53.843Z,100425.84
2022-10-20T20:31:57.015Z,100424.47
2022-10-20T20:35:00.355Z,100425.84
2022-10-20T20:38:03.711Z,100426.69
2022-10-20T20:41:10.423Z,100432.13
2022-10-20T20:44:16.143Z,100439.91
2022-10-20T20:47:19.306Z,100438.94
2022-10-20T20:50:22.547Z,100452.22
2022-10-20T20:53:26.028Z,100454.00
2022-10-20T20:56:30.869Z,100452.94
2022-10-20T20:59:34.058Z,100460.84
2022-10-20T21:02:37.366Z,100460.88
2022-10-20T21:05:40.574Z,100462.41
2022-10-20T21:08:46.461Z,100468.31
2022-10-20T21:11:51.102Z,100472.06
2022-10-20T21:14:54.203Z,100473.22
2022-10-20T21:17:57.385Z,100478.41
2022-10-20T21:21:06.875Z,100479.94
2022-10-20T21:24:11.473Z,100482.34
2022-10-20T21:27:15.922Z,100487.44
2022-10-20T21:30:19.123Z,100492.75
2022-10-20T21:33:22.394Z,100492.66
2022-10-20T21:36:26.511Z,100492.03
2022-10-20T21:42:34.133Z,100494.78
2022-10-20T21:45:37.466Z,100504.78
2022-10-20T21:48:40.635Z,100501.63
2022-10-20T21:51:46.405Z,100503.72
2022-10-20T21:54:49.553Z,100510.03
2022-10-20T21:57:54.084Z,100517.78
2022-10-20T22:00:57.344Z,100511.53
2022-10-20T22:04:00.457Z,100513.19
2022-10-20T22:07:03.645Z,100521.78
2022-10-20T22:10:07.613Z,100524.41
2022-10-20T22:13:12.126Z,100523.63
2022-10-20T22:16:17.514Z,100526.78
2022-10-20T22:19:23.312Z,100528.28
2022-10-20T22:22:27.693Z,100522.53
2022-10-20T22:25:30.811Z,100527.94
2022-10-20T22:28:35.342Z,100531.66
2022-10-20T22:31:38.715Z,100529.41
2022-10-20T22:34:41.829Z,100525.22
2022-10-20T22:37:45.015Z,100530.66
2022-10-20T22:40:48.275Z,100533.19
2022-10-20T22:43:53.065Z,100537.00
2022-10-20T22:46:56.262Z,100531.38
2022-10-20T22:49:59.460Z,100538.47
2022-10-20T22:53:02.638Z,100545.59
2022-10-20T22:56:07.647Z,100546.66
2022-10-20T22:59:12.266Z,100554.63
2022-10-20T23:02:15.434Z,100553.00
2022-10-20T23:05:18.807Z,100555.09
2022-10-20T23:08:22.012Z,100558.16
2022-10-20T23:11:25.446Z,100559.72
2022-10-20T23:14:29.973Z,100556.06
2022-10-20T23:17:33.277Z,100554.19
2022-10-20T23:20:36.498Z,100559.56
2022-10-20T23:23:39.913Z,100555.97
2022-10-20T23:26:43.570Z,100554.06
2022-10-20T23:29:48.175Z,100557.47
2022-10-20T23:32:51.371Z,100563.25
2022-10-20T23:35:54.579Z,100561.66
2022-10-20T23:38:57.783Z,100570.78
2022-10-20T23:42:04.784Z,100568.81
2022-10-20T23:45:12.600Z,100569.03
2022-10-20T23:48:15.818Z,100576.44
2022-10-20T23:51:19.039Z,100582.97
2022-10-20T23:54:22.406Z,100580.44
2022-10-20T23:57:25.609Z,100579.47
